sensor_id;sensor_type;location;lat;lon;timestamp;temperature;humidity
1411;DHT22;700;51.906;8.404;2023-01-29T00:02:32;1.50;99.90
1411;DHT22;700;51.906;8.404;2023-01-29T00:07:34;1.50;99.90
1411;DHT22;700;51.906;8.404;2023-01-29T00:12:38;1.60;99.90
1411;DHT22;700;51.906;8.404;2023-01-29T00:17:38;1.60;99.90
1411;DHT22;700;51.906;8.404;2023-01-29T00:22:41;1.90;99.90
1411;DHT22;700;51.906;8.404;2023-01-29T00:27:44;1.60;99.90
1411;DHT22;700;51.906;8.404;2023-01-29T00:32:45;1.60;99.90
1411;DHT22;700;51.906;8.404;2023-01-29T00:37:45;1.40;99.90
1411;DHT22;700;51.906;8.404;2023-01-29T00:42:48;1.50;99.90
1411;DHT22;700;51.906;8.404;2023-01-29T00:48:07;1.20;99.90
1411;DHT22;700;51.906;8.404;2023-01-29T00:53:08;1.60;99.90
1411;DHT22;700;51.906;8.404;2023-01-29T00:58:09;0.90;99.90
1411;DHT22;700;51.906;8.404;2023-01-29T01:03:11;1.50;99.90
1411;DHT22;700;51.906;8.404;2023-01-29T01:08:12;1.30;99.90
1411;DHT22;700;51.906;8.404;2023-01-29T01:13:32;1.10;99.90
1411;DHT22;700;51.906;8.404;2023-01-29T01:18:35;1.30;99.90
1411;DHT22;700;51.906;8.404;2023-01-29T01:23:37;1.50;99.90
1411;DHT22;700;51.906;8.404;2023-01-29T01:28:38;1.00;99.90
1411;DHT22;700;51.906;8.404;2023-01-29T01:33:39;1.50;99.90
1411;DHT22;700;51.906;8.404;2023-01-29T01:38:40;1.30;99.90
1411;DHT22;700;51.906;8.404;2023-01-29T01:49:12;0.90;99.90
1411;DHT22;700;51.906;8.404;2023-01-29T01:54:23;1.10;99.90
1411;DHT22;700;51.906;8.404;2023-01-29T01:59:26;1.00;99.90
1411;DHT22;700;51.906;8.404;2023-01-29T02:04:27;1.00;99.90
1411;DHT22;700;51.906;8.404;2023-01-29T02:09:52;1.00;99.90
1411;DHT22;700;51.906;8.404;2023-01-29T02:14:56;1.20;99.90
1411;DHT22;700;51.906;8.404;2023-01-29T02:20:07;1.40;99.90
1411;DHT22;700;51.906;8.404;2023-01-29T02:31:23;1.60;99.90
1411;DHT22;700;51.906;8.404;2023-01-29T02:57:36;1.50;99.90
1411;DHT22;700;51.906;8.404;2023-01-29T03:02:50;1.60;99.90
1411;DHT22;700;51.906;8.404;2023-01-29T03:07:59;1.70;99.90
1411;DHT22;700;51.906;8.404;2023-01-29T03:18:27;1.60;99.90
1411;DHT22;700;51.906;8.404;2023-01-29T03:23:33;1.30;99.90
1411;DHT22;700;51.906;8.404;2023-01-29T03:28:53;1.40;99.90
1411;DHT22;700;51.906;8.404;2023-01-29T03:34:19;1.50;99.90
1411;DHT22;700;51.906;8.404;2023-01-29T03:39:26;1.40;99.90
1411;DHT22;700;51.906;8.404;2023-01-29T03:55:06;1.50;99.90
1411;DHT22;700;51.906;8.404;2023-01-29T04:05:20;1.20;99.90
1411;DHT22;700;51.906;8.404;2023-01-29T04:10:24;1.30;99.90
1411;DHT22;700;51.906;8.404;2023-01-29T04:15:28;1.10;99.90
1411;DHT22;700;51.906;8.404;2023-01-29T04:20:29;1.00;99.90
1411;DHT22;700;51.906;8.404;2023-01-29T04:25:38;1.10;99.90
1411;DHT22;700;51.906;8.404;2023-01-29T04:31:04;1.00;99.90
1411;DHT22;700;51.906;8.404;2023-01-29T04:52:08;0.70;99.90
1411;DHT22;700;51.906;8.404;2023-01-29T04:57:25;0.40;99.90
1411;DHT22;700;51.906;8.404;2023-01-29T05:02:28;0.60;99.90
1411;DHT22;700;51.906;8.404;2023-01-29T05:07:33;0.40;99.90
1411;DHT22;700;51.906;8.404;2023-01-29T05:12:36;0.20;99.90
1411;DHT22;700;51.906;8.404;2023-01-29T05:17:37;0.80;99.90
1411;DHT22;700;51.906;8.404;2023-01-29T05:22:39;1.10;99.90
1411;DHT22;700;51.906;8.404;2023-01-29T05:27:43;1.60;99.90
1411;DHT22;700;51.906;8.404;2023-01-29T05:38:17;2.20;99.90
1411;DHT22;700;51.906;8.404;2023-01-29T05:43:20;2.50;99.90
1411;DHT22;700;51.906;8.404;2023-01-29T05:48:21;2.60;99.90
1411;DHT22;700;51.906;8.404;2023-01-29T05:53:23;2.40;99.90
1411;DHT22;700;51.906;8.404;2023-01-29T05:58:24;2.60;99.90
1411;DHT22;700;51.906;8.404;2023-01-29T06:03:24;2.80;99.90
1411;DHT22;700;51.906;8.404;2023-01-29T06:08:25;2.80;99.90
1411;DHT22;700;51.906;8.404;2023-01-29T06:13:28;2.40;99.90
1411;DHT22;700;51.906;8.404;2023-01-29T06:18:34;2.30;99.90
1411;DHT22;700;51.906;8.404;2023-01-29T06:23:35;2.20;99.90
1411;DHT22;700;51.906;8.404;2023-01-29T06:28:39;2.30;99.90
1411;DHT22;700;51.906;8.404;2023-01-29T06:33:42;2.10;99.90
1411;DHT22;700;51.906;8.404;2023-01-29T06:38:46;2.00;99.90
1411;DHT22;700;51.906;8.404;2023-01-29T06:43:48;2.20;99.90
1411;DHT22;700;51.906;8.404;2023-01-29T06:48:51;2.00;99.90
1411;DHT22;700;51.906;8.404;2023-01-29T06:53:52;2.30;99.90
1411;DHT22;700;51.906;8.404;2023-01-29T06:58:57;2.20;99.90
1411;DHT22;700;51.906;8.404;2023-01-29T07:03:58;2.10;99.90
1411;DHT22;700;51.906;8.404;2023-01-29T07:08:58;2.20;99.90
1411;DHT22;700;51.906;8.404;2023-01-29T07:13:59;2.10;99.90
1411;DHT22;700;51.906;8.404;2023-01-29T07:19:00;1.80;99.90
1411;DHT22;700;51.906;8.404;2023-01-29T07:24:03;1.50;99.90
1411;DHT22;700;51.906;8.404;2023-01-29T07:29:06;1.20;99.90
1411;DHT22;700;51.906;8.404;2023-01-29T07:34:07;1.50;99.90
1411;DHT22;700;51.906;8.404;2023-01-29T07:39:10;1.80;99.90
1411;DHT22;700;51.906;8.404;2023-01-29T07:44:10;2.00;99.90
1411;DHT22;700;51.906;8.404;2023-01-29T07:49:11;2.10;99.90
1411;DHT22;700;51.906;8.404;2023-01-29T07:54:12;2.20;99.90
1411;DHT22;700;51.906;8.404;2023-01-29T07:59:12;1.90;99.90
1411;DHT22;700;51.906;8.404;2023-01-29T08:04:13;1.90;99.90
1411;DHT22;700;51.906;8.404;2023-01-29T08:09:16;1.70;99.90
1411;DHT22;700;51.906;8.404;2023-01-29T08:14:17;1.80;99.90
1411;DHT22;700;51.906;8.404;2023-01-29T08:19:20;1.60;99.90
1411;DHT22;700;51.906;8.404;2023-01-29T08:24:22;1.70;99.90
1411;DHT22;700;51.906;8.404;2023-01-29T08:29:23;1.60;99.90
1411;DHT22;700;51.906;8.404;2023-01-29T08:34:24;1.70;99.90
1411;DHT22;700;51.906;8.404;2023-01-29T08:39:27;1.70;99.90
1411;DHT22;700;51.906;8.404;2023-01-29T08:44:28;1.70;99.90
1411;DHT22;700;51.906;8.404;2023-01-29T08:49:31;2.00;99.90
1411;DHT22;700;51.906;8.404;2023-01-29T08:54:31;2.10;99.90
1411;DHT22;700;51.906;8.404;2023-01-29T08:59:32;2.00;99.90
1411;DHT22;700;51.906;8.404;2023-01-29T09:04:35;2.20;99.90
1411;DHT22;700;51.906;8.404;2023-01-29T09:09:38;2.20;99.90
1411;DHT22;700;51.906;8.404;2023-01-29T09:14:38;2.20;99.90
1411;DHT22;700;51.906;8.404;2023-01-29T09:19:39;2.10;99.90
1411;DHT22;700;51.906;8.404;2023-01-29T09:24:42;2.10;99.90
1411;DHT22;700;51.906;8.404;2023-01-29T09:29:42;2.40;99.90
1411;DHT22;700;51.906;8.404;2023-01-29T09:34:48;2.50;99.90
1411;DHT22;700;51.906;8.404;2023-01-29T09:39:53;2.70;99.90
1411;DHT22;700;51.906;8.404;2023-01-29T09:45:05;2.60;99.90
1411;DHT22;700;51.906;8.404;2023-01-29T09:50:57;2.80;99.90
1411;DHT22;700;51.906;8.404;2023-01-29T09:55:38;3.00;99.90
1411;DHT22;700;51.906;8.404;2023-01-29T10:00:56;3.20;99.90
1411;DHT22;700;51.906;8.404;2023-01-29T10:06:17;3.70;99.90
1411;DHT22;700;51.906;8.404;2023-01-29T10:11:48;3.80;99.90
1411;DHT22;700;51.906;8.404;2023-01-29T10:27:17;3.30;99.90
1411;DHT22;700;51.906;8.404;2023-01-29T10:32:19;3.40;99.90
1411;DHT22;700;51.906;8.404;2023-01-29T10:37:38;3.20;99.90
1411;DHT22;700;51.906;8.404;2023-01-29T10:42:46;3.30;99.90
1411;DHT22;700;51.906;8.404;2023-01-29T10:53:47;3.60;99.90
1411;DHT22;700;51.906;8.404;2023-01-29T10:58:55;3.60;99.90
1411;DHT22;700;51.906;8.404;2023-01-29T11:04:03;4.00;99.90
1411;DHT22;700;51.906;8.404;2023-01-29T11:14:39;4.10;99.90
1411;DHT22;700;51.906;8.404;2023-01-29T11:19:43;3.90;99.90
1411;DHT22;700;51.906;8.404;2023-01-29T11:25:06;3.90;99.90
1411;DHT22;700;51.906;8.404;2023-01-29T11:35:46;3.80;99.90
1411;DHT22;700;51.906;8.404;2023-01-29T11:40:50;4.00;99.90
1411;DHT22;700;51.906;8.404;2023-01-29T11:46:00;4.30;99.90
1411;DHT22;700;51.906;8.404;2023-01-29T11:51:01;4.20;99.90
1411;DHT22;700;51.906;8.404;2023-01-29T11:56:16;4.40;99.90
1411;DHT22;700;51.906;8.404;2023-01-29T12:01:29;4.60;99.90
1411;DHT22;700;51.906;8.404;2023-01-29T12:06:35;4.70;99.90
1411;DHT22;700;51.906;8.404;2023-01-29T12:11:39;5.00;99.90
1411;DHT22;700;51.906;8.404;2023-01-29T12:38:27;4.40;99.90
1411;DHT22;700;51.906;8.404;2023-01-29T12:48:37;4.70;99.90
1411;DHT22;700;51.906;8.404;2023-01-29T12:53:48;4.30;99.90
1411;DHT22;700;51.906;8.404;2023-01-29T12:58:52;4.60;99.90
1411;DHT22;700;51.906;8.404;2023-01-29T13:04:37;4.80;99.90
1411;DHT22;700;51.906;8.404;2023-01-29T13:09:20;5.10;99.90
1411;DHT22;700;51.906;8.404;2023-01-29T13:14:47;5.10;99.90
1411;DHT22;700;51.906;8.404;2023-01-29T13:19:53;5.30;99.90
1411;DHT22;700;51.906;8.404;2023-01-29T13:24:56;5.50;99.90
1411;DHT22;700;51.906;8.404;2023-01-29T13:30:01;5.70;99.90
1411;DHT22;700;51.906;8.404;2023-01-29T13:35:11;5.20;99.90
1411;DHT22;700;51.906;8.404;2023-01-29T13:40:27;5.30;99.90
1411;DHT22;700;51.906;8.404;2023-01-29T13:45:42;5.20;99.90
1411;DHT22;700;51.906;8.404;2023-01-29T13:50:44;5.20;99.90
1411;DHT22;700;51.906;8.404;2023-01-29T13:55:45;4.90;99.90
1411;DHT22;700;51.906;8.404;2023-01-29T14:00:47;5.00;99.90
1411;DHT22;700;51.906;8.404;2023-01-29T14:05:57;4.90;99.90
1411;DHT22;700;51.906;8.404;2023-01-29T14:26:40;4.40;99.90
1411;DHT22;700;51.906;8.404;2023-01-29T14:37:28;4.20;99.90
1411;DHT22;700;51.906;8.404;2023-01-29T14:42:36;4.40;99.90
1411;DHT22;700;51.906;8.404;2023-01-29T14:52:41;4.60;99.90
1411;DHT22;700;51.906;8.404;2023-01-29T14:57:42;4.70;99.90
1411;DHT22;700;51.906;8.404;2023-01-29T15:02:45;4.60;99.90
1411;DHT22;700;51.906;8.404;2023-01-29T15:07:55;4.20;99.90
1411;DHT22;700;51.906;8.404;2023-01-29T15:13:16;4.00;99.90
1411;DHT22;700;51.906;8.404;2023-01-29T15:18:27;4.40;99.90
1411;DHT22;700;51.906;8.404;2023-01-29T15:23:33;4.10;99.90
1411;DHT22;700;51.906;8.404;2023-01-29T15:28:34;4.00;99.90
1411;DHT22;700;51.906;8.404;2023-01-29T15:33:41;4.20;99.90
1411;DHT22;700;51.906;8.404;2023-01-29T15:38:44;4.10;99.90
1411;DHT22;700;51.906;8.404;2023-01-29T15:43:56;4.10;99.90
1411;DHT22;700;51.906;8.404;2023-01-29T15:49:05;4.20;99.90
1411;DHT22;700;51.906;8.404;2023-01-29T15:54:10;4.20;99.90
1411;DHT22;700;51.906;8.404;2023-01-29T15:59:21;4.10;99.90
1411;DHT22;700;51.906;8.404;2023-01-29T16:04:26;4.20;99.90
1411;DHT22;700;51.906;8.404;2023-01-29T16:09:30;4.10;99.90
1411;DHT22;700;51.906;8.404;2023-01-29T16:14:36;4.00;99.90
1411;DHT22;700;51.906;8.404;2023-01-29T16:19:37;3.80;99.90
1411;DHT22;700;51.906;8.404;2023-01-29T16:24:37;3.80;99.90
1411;DHT22;700;51.906;8.404;2023-01-29T16:29:38;4.10;99.90
1411;DHT22;700;51.906;8.404;2023-01-29T16:34:43;4.10;99.90
1411;DHT22;700;51.906;8.404;2023-01-29T16:39:46;4.00;99.90
1411;DHT22;700;51.906;8.404;2023-01-29T16:50:25;4.10;99.90
1411;DHT22;700;51.906;8.404;2023-01-29T16:55:39;3.80;99.90
1411;DHT22;700;51.906;8.404;2023-01-29T17:00:51;3.90;99.90
1411;DHT22;700;51.906;8.404;2023-01-29T17:05:54;3.70;99.90
1411;DHT22;700;51.906;8.404;2023-01-29T17:10:55;3.80;99.90
1411;DHT22;700;51.906;8.404;2023-01-29T17:16:00;3.60;99.90
1411;DHT22;700;51.906;8.404;2023-01-29T17:21:04;3.40;99.90
1411;DHT22;700;51.906;8.404;2023-01-29T17:26:05;3.60;99.90
1411;DHT22;700;51.906;8.404;2023-01-29T17:31:11;3.60;99.90
1411;DHT22;700;51.906;8.404;2023-01-29T17:36:13;3.70;99.90
1411;DHT22;700;51.906;8.404;2023-01-29T17:46:21;4.10;99.90
1411;DHT22;700;51.906;8.404;2023-01-29T17:51:24;4.30;99.90
1411;DHT22;700;51.906;8.404;2023-01-29T17:56:25;4.20;99.90
1411;DHT22;700;51.906;8.404;2023-01-29T18:01:27;4.00;99.90
1411;DHT22;700;51.906;8.404;2023-01-29T18:06:31;3.90;99.90
1411;DHT22;700;51.906;8.404;2023-01-29T18:11:32;3.90;99.90
1411;DHT22;700;51.906;8.404;2023-01-29T18:16:36;3.90;99.90
1411;DHT22;700;51.906;8.404;2023-01-29T18:21:37;3.80;99.90
1411;DHT22;700;51.906;8.404;2023-01-29T18:26:38;3.60;99.90
1411;DHT22;700;51.906;8.404;2023-01-29T18:31:38;3.60;99.90
1411;DHT22;700;51.906;8.404;2023-01-29T18:36:41;3.50;99.90
1411;DHT22;700;51.906;8.404;2023-01-29T18:41:49;3.30;99.90
1411;DHT22;700;51.906;8.404;2023-01-29T18:46:50;3.20;99.90
1411;DHT22;700;51.906;8.404;2023-01-29T18:51:53;3.20;99.90
1411;DHT22;700;51.906;8.404;2023-01-29T18:56:53;2.90;99.90
1411;DHT22;700;51.906;8.404;2023-01-29T19:01:54;3.00;99.90
1411;DHT22;700;51.906;8.404;2023-01-29T19:06:55;3.20;99.90
1411;DHT22;700;51.906;8.404;2023-01-29T19:11:58;3.30;99.90
1411;DHT22;700;51.906;8.404;2023-01-29T19:16:58;3.30;99.90
1411;DHT22;700;51.906;8.404;2023-01-29T19:22:01;3.60;99.90
1411;DHT22;700;51.906;8.404;2023-01-29T19:27:04;3.70;99.90
1411;DHT22;700;51.906;8.404;2023-01-29T19:32:07;3.70;99.90
1411;DHT22;700;51.906;8.404;2023-01-29T19:37:10;3.60;99.90
1411;DHT22;700;51.906;8.404;2023-01-29T19:42:11;3.70;99.90
1411;DHT22;700;51.906;8.404;2023-01-29T19:47:14;3.60;99.90
1411;DHT22;700;51.906;8.404;2023-01-29T19:52:15;3.90;99.90
1411;DHT22;700;51.906;8.404;2023-01-29T19:57:35;3.90;99.90
1411;DHT22;700;51.906;8.404;2023-01-29T20:02:35;3.80;99.90
1411;DHT22;700;51.906;8.404;2023-01-29T20:07:36;3.80;99.90
1411;DHT22;700;51.906;8.404;2023-01-29T20:12:39;3.70;99.90
1411;DHT22;700;51.906;8.404;2023-01-29T20:17:40;3.60;99.90
1411;DHT22;700;51.906;8.404;2023-01-29T20:22:41;3.60;99.90
1411;DHT22;700;51.906;8.404;2023-01-29T20:27:41;3.50;99.90
1411;DHT22;700;51.906;8.404;2023-01-29T20:32:42;3.60;99.90
1411;DHT22;700;51.906;8.404;2023-01-29T20:37:43;3.60;99.90
1411;DHT22;700;51.906;8.404;2023-01-29T20:42:43;3.40;99.90
1411;DHT22;700;51.906;8.404;2023-01-29T20:47:44;3.50;99.90
1411;DHT22;700;51.906;8.404;2023-01-29T20:52:47;3.30;99.90
1411;DHT22;700;51.906;8.404;2023-01-29T20:57:50;3.50;99.90
1411;DHT22;700;51.906;8.404;2023-01-29T21:02:53;3.60;99.90
1411;DHT22;700;51.906;8.404;2023-01-29T21:07:54;3.60;99.90
1411;DHT22;700;51.906;8.404;2023-01-29T21:12:57;3.60;99.90
1411;DHT22;700;51.906;8.404;2023-01-29T21:17:58;3.60;99.90
1411;DHT22;700;51.906;8.404;2023-01-29T21:23:02;3.70;99.90
1411;DHT22;700;51.906;8.404;2023-01-29T21:28:04;3.80;99.90
1411;DHT22;700;51.906;8.404;2023-01-29T21:33:05;3.80;99.90
1411;DHT22;700;51.906;8.404;2023-01-29T21:38:06;4.00;99.90
1411;DHT22;700;51.906;8.404;2023-01-29T21:43:08;4.20;99.90
1411;DHT22;700;51.906;8.404;2023-01-29T21:48:16;4.30;99.90
1411;DHT22;700;51.906;8.404;2023-01-29T21:53:17;4.40;99.90
1411;DHT22;700;51.906;8.404;2023-01-29T21:58:23;4.50;99.90
1411;DHT22;700;51.906;8.404;2023-01-29T22:03:26;4.80;99.90
1411;DHT22;700;51.906;8.404;2023-01-29T22:08:28;4.60;99.90
1411;DHT22;700;51.906;8.404;2023-01-29T22:13:32;4.60;99.90
1411;DHT22;700;51.906;8.404;2023-01-29T22:18:33;4.70;99.90
1411;DHT22;700;51.906;8.404;2023-01-29T22:23:36;4.80;99.90
1411;DHT22;700;51.906;8.404;2023-01-29T22:28:41;4.80;99.90
1411;DHT22;700;51.906;8.404;2023-01-29T22:33:42;4.60;99.90
1411;DHT22;700;51.906;8.404;2023-01-29T22:38:43;4.90;99.90
1411;DHT22;700;51.906;8.404;2023-01-29T22:43:43;4.90;99.90
1411;DHT22;700;51.906;8.404;2023-01-29T22:48:46;5.10;99.90
1411;DHT22;700;51.906;8.404;2023-01-29T22:53:50;4.90;99.90
1411;DHT22;700;51.906;8.404;2023-01-29T22:58:55;5.00;99.90
1411;DHT22;700;51.906;8.404;2023-01-29T23:03:56;5.00;99.90
1411;DHT22;700;51.906;8.404;2023-01-29T23:08:57;4.90;99.90
1411;DHT22;700;51.906;8.404;2023-01-29T23:13:57;4.80;99.90
1411;DHT22;700;51.906;8.404;2023-01-29T23:18:58;4.80;99.90
1411;DHT22;700;51.906;8.404;2023-01-29T23:23:59;4.70;99.90
1411;DHT22;700;51.906;8.404;2023-01-29T23:29:00;4.70;99.90
1411;DHT22;700;51.906;8.404;2023-01-29T23:34:03;4.90;99.90
1411;DHT22;700;51.906;8.404;2023-01-29T23:39:06;5.00;99.90
1411;DHT22;700;51.906;8.404;2023-01-29T23:44:09;5.10;99.90
1411;DHT22;700;51.906;8.404;2023-01-29T23:49:12;5.10;99.90
1411;DHT22;700;51.906;8.404;2023-01-29T23:54:13;5.20;99.90
1411;DHT22;700;51.906;8.404;2023-01-29T23:59:16;5.20;99.90
